Time;durP1;ratioP1;P1;durP2;ratioP2;P2;SDS_P1;SDS_P2;PMS_P1;PMS_P2;Temp;Humidity;BMP_temperature;BMP_pressure;BME280_temperature;BME280_humidity;BME280_pressure;Samples;Min_cycle;Max_cycle;Signal;HPM_P1;HPM_P2
2023/09/05 00:01:19;;;;;;;9.00;7.63;;;;;;;;;;6254173;23;20497;-92
2023/09/05 00:03:47;;;;;;;7.97;7.30;;;;;;;;;;6251152;23;20779;-93
2023/09/05 00:06:19;;;;;;;8.30;7.50;;;;;;;;;;6255728;23;20802;-92
2023/09/05 00:08:48;;;;;;;7.27;6.67;;;;;;;;;;6274605;22;20497;-93
2023/09/05 00:11:17;;;;;;;8.10;6.17;;;;;;;;;;6274790;22;20389;-93
2023/09/05 00:13:47;;;;;;;7.43;6.73;;;;;;;;;;6274918;22;20390;-93
2023/09/05 00:16:15;;;;;;;7.17;6.47;;;;;;;;;;6274891;22;20405;-93
2023/09/05 00:18:47;;;;;;;7.57;6.70;;;;;;;;;;6274678;22;20419;-93
2023/09/05 00:21:18;;;;;;;8.70;7.10;;;;;;;;;;6274744;22;20472;-93
2023/09/05 00:23:48;;;;;;;6.80;6.20;;;;;;;;;;6274726;22;20428;-94
2023/09/05 00:26:24;;;;;;;7.73;6.97;;;17.30;99.90;;;;;;6274663;22;20389;-93
2023/09/05 00:28:51;;;;;;;9.20;5.87;;;;;;;;;;6274843;22;20440;-92
2023/09/05 00:31:24;;;;;;;7.37;6.67;;;;;;;;;;6274184;22;20389;-92
2023/09/05 00:33:54;;;;;;;8.73;6.83;;;;;;;;;;6273873;22;20409;-91
2023/09/05 00:36:27;;;;;;;7.27;6.57;;;;;;;;;;6258657;23;20421;-92
2023/09/05 00:38:55;;;;;;;7.40;6.70;;;;;;;;;;6252184;22;20436;-91
2023/09/05 00:41:28;;;;;;;7.07;6.23;;;;;;;;;;6254959;22;20393;-91
2023/09/05 00:43:59;;;;;;;6.40;5.80;;;;;;;;;;6265392;22;20437;-91
2023/09/05 00:46:28;;;;;;;7.23;5.93;;;;;;;;;;6250249;23;20412;-92
2023/09/05 00:48:57;;;;;;;5.77;5.20;;;;;;;;;;6250617;22;20780;-92
2023/09/05 00:51:27;;;;;;;6.80;6.10;;;;;;;;;;6251594;23;20444;-92
2023/09/05 00:53:55;;;;;;;10.80;6.10;;;;;;;;;;6258491;23;20405;-91
2023/09/05 00:56:30;;;;;;;7.33;5.70;;;;;;;;;;6261207;23;20409;-91
2023/09/05 00:58:59;;;;;;;8.03;7.33;;;;;;;;;;6255634;22;20805;-92
2023/09/05 01:01:38;;;;;;;6.73;6.23;;;;;;;;;;6252515;23;20416;-92
2023/09/05 01:04:20;;;;;;;7.20;6.60;;;;;;;;;;6250117;23;20480;-92
2023/09/05 01:07:00;;;;;;;6.97;6.27;;;;;;;;;;6250639;22;20527;-92
2023/09/05 01:09:40;;;;;;;6.53;5.73;;;17.00;1.00;;;;;;6250319;23;20373;-91
2023/09/05 01:12:09;;;;;;;6.47;5.97;;;;;;;;;;6250904;23;20408;-92
2023/09/05 01:14:36;;;;;;;7.30;6.70;;;;;;;;;;6250527;23;20411;-92
2023/09/05 01:17:07;;;;;;;5.83;5.33;;;;;;;;;;6250904;22;20915;-91
2023/09/05 01:19:36;;;;;;;6.53;5.30;;;16.90;58.90;;;;;;6250482;23;20385;-91
2023/09/05 01:22:14;;;;;;;6.53;6.00;;;16.90;99.90;;;;;;6249772;23;20757;-91
2023/09/05 01:24:47;;;;;;;6.87;6.23;;;;;;;;;;6256326;22;20930;-92
2023/09/05 01:27:19;;;;;;;6.80;6.20;;;16.90;1.00;;;;;;6250557;22;20429;-92
2023/09/05 01:29:57;;;;;;;6.63;6.07;;;;;;;;;;6248910;23;20415;-91
2023/09/05 01:35:36;;;;;;;10.60;6.37;;;;;;;;;;6249442;23;20404;-92
2023/09/05 01:38:22;;;;;;;7.03;6.40;;;;;;;;;;6249097;22;20949;-92
2023/09/05 01:41:10;;;;;;;6.60;6.00;;;16.80;99.90;;;;;;6250020;23;20455;-93
2023/09/05 01:43:37;;;;;;;6.50;5.80;;;;;;;;;;6258589;22;20444;-93
2023/09/05 01:46:07;;;;;;;7.20;6.53;;;;;;;;;;6274528;22;20393;-92
2023/09/05 01:48:35;;;;;;;7.30;6.60;;;;;;;;;;6274501;22;20428;-93
2023/09/05 01:51:05;;;;;;;9.00;6.93;;;;;;;;;;6254498;22;20405;-92
2023/09/05 01:53:32;;;;;;;7.80;6.80;;;;;;;;;;6253542;23;20411;-92
2023/09/05 01:56:08;;;;;;;6.93;6.37;;;;;;;;;;6249790;23;20424;-93
2023/09/05 02:05:02;;;;;;;8.57;6.87;;;16.50;99.90;;;;;;6238744;23;20489;-91
2023/09/05 02:07:47;;;;;;;7.20;6.50;;;;;;;;;;6199944;22;20446;-93
2023/09/05 02:13:42;;;;;;;7.23;6.13;;;;;;;;;;6181976;23;20411;-92
2023/09/05 02:16:19;;;;;;;6.87;6.27;;;;;;;;;;6256942;22;20424;-91
2023/09/05 02:18:50;;;;;;;8.10;6.27;;;;;;;;;;6274957;22;20425;-92
2023/09/05 02:21:17;;;;;;;6.77;6.07;;;;;;;;;;6274549;22;20412;-91
2023/09/05 02:23:47;;;;;;;8.00;6.10;;;;;;;;;;6276068;22;20467;-93
2023/09/05 02:26:17;;;;;;;8.60;6.10;;;;;;;;;;6272401;22;20412;-92
2023/09/05 02:32:20;;;;;;;7.87;6.27;;;;;;;;;;6248760;23;20392;-92
2023/09/05 02:45:40;;;;;;;6.20;5.70;;;16.50;1.00;;;;;;6271890;22;20436;-92
2023/09/05 02:48:25;;;;;;;8.20;6.37;;;;;;;;;;6275238;22;20417;-93
2023/09/05 02:56:46;;;;;;;6.50;5.90;;;;;;;;;;6281009;22;20402;-92
2023/09/05 03:02:43;;;;;;;6.33;5.73;;;16.60;1.00;;;;;;6273103;22;20405;-91
2023/09/05 03:05:26;;;;;;;6.53;5.93;;;;;;;;;;6261029;22;20427;-92
2023/09/05 03:38:16;;;;;;;28.20;15.13;;;;;;;;;;6250119;22;20422;-91
2023/09/05 03:44:07;;;;;;;36.07;20.30;;;;;;;;;;6252666;23;20447;-91
2023/09/05 03:46:54;;;;;;;37.87;20.97;;;;;;;;;;6254324;23;20843;-92
2023/09/05 03:52:46;;;;;;;32.70;20.37;;;16.30;1.00;;;;;;6243877;23;20467;-90
2023/09/05 03:58:31;;;;;;;30.47;16.57;;;;;;;;;;6252081;22;20423;-91
2023/09/05 04:10:59;;;;;;;12.27;9.00;;;16.20;1.00;;;;;;6111398;23;20380;-93
2023/09/05 04:19:43;;;;;;;7.30;6.70;;;;;;;;;;6179925;23;20481;-91
2023/09/05 04:22:21;;;;;;;7.50;6.70;;;;;;;;;;6226368;23;20375;-91
2023/09/05 04:25:19;;;;;;;8.40;7.70;;;16.00;99.90;;;;;;6235911;23;20464;-92
2023/09/05 04:41:30;;;;;;;7.47;6.67;;;16.00;1.00;;;;;;6201563;23;20483;-92
2023/09/05 04:47:38;;;;;;;13.13;7.10;;;;;;;;;;6129064;23;20418;-92
2023/09/05 04:50:15;;;;;;;8.30;7.43;;;16.00;99.90;;;;;;6222398;23;20492;-92
2023/09/05 04:52:42;;;;;;;10.33;7.00;;;;;;;;;;6222674;23;20395;-92
2023/09/05 04:55:10;;;;;;;12.03;8.90;;;16.30;1.00;;;;;;6222539;23;20429;-92
2023/09/05 04:57:38;;;;;;;12.70;9.20;;;;;;;;;;6225403;23;20400;-93
2023/09/05 05:00:13;;;;;;;10.20;8.47;;;;;;;;;;6223162;23;20420;-92
2023/09/05 05:02:47;;;;;;;11.80;9.30;;;;;;;;;;6225697;23;20410;-92
2023/09/05 05:05:14;;;;;;;16.03;11.30;;;;;;;;;;6221741;23;20437;-92
2023/09/05 05:07:42;;;;;;;15.10;10.57;;;;;;;;;;6222020;23;20412;-92
2023/09/05 05:10:10;;;;;;;14.63;11.20;;;;;;;;;;6226659;22;20415;-92
2023/09/05 05:12:44;;;;;;;16.77;10.50;;;;;;;;;;6243457;22;20392;-92
2023/09/05 05:15:12;;;;;;;17.40;9.50;;;16.30;1.00;;;;;;6243769;22;20396;-92
2023/09/05 05:17:40;;;;;;;13.90;9.70;;;;;;;;;;6222748;23;20386;-90
2023/09/05 05:20:08;;;;;;;12.50;7.87;;;;;;;;;;6219524;23;20497;-89
2023/09/05 05:22:35;;;;;;;12.13;7.67;;;;;;;;;;6219219;23;20405;-89
2023/09/05 05:25:02;;;;;;;11.40;7.80;;;;;;;;;;6219382;23;20441;-89
2023/09/05 05:31:14;;;;;;;9.17;7.93;;;16.70;99.90;;;;;;6209345;23;20437;-91
2023/09/05 05:36:57;;;;;;;7.83;6.43;;;;;;;;;;6219093;23;20397;-89
2023/09/05 05:42:32;;;;;;;7.70;6.57;;;;;;;;;;6177142;23;20385;-88
2023/09/05 05:48:36;;;;;;;7.40;5.70;;;;;;;;;;6130197;23;20728;-89
2023/09/05 05:51:34;;;;;;;8.43;7.63;;;17.20;1.00;;;;;;6222050;23;20394;-89
2023/09/05 05:57:51;;;;;;;8.90;6.83;;;;;;;;;;6218762;23;20409;-89
2023/09/05 06:04:06;;;;;;;9.83;5.77;;;17.40;99.90;;;;;;6219044;23;20404;-90
2023/09/05 06:06:54;;;;;;;6.80;5.90;;;;;;;;;;6221733;23;20410;-90
2023/09/05 06:10:16;;;;;;;8.60;6.77;;;17.50;1.00;;;;;;6223028;23;20434;-89
2023/09/05 06:15:49;;;;;;;5.83;5.17;;;;;;;;;;6226093;22;20439;-90
2023/09/05 06:21:38;;;;;;;5.13;4.73;;;;;;;;;;6146775;23;20740;-89
2023/09/05 06:24:22;;;;;;;6.37;5.13;;;;;;;;;;6222891;23;20441;-89
2023/09/05 06:27:05;;;;;;;5.93;5.43;;;;;;;;;;6233837;23;20420;-89
2023/09/05 06:32:24;;;;;;;6.70;5.10;;;;;;;;;;6228274;23;20448;-90
2023/09/05 06:34:51;;;;;;;7.00;4.70;;;;;;;;;;6223346;23;20405;-89
2023/09/05 06:37:20;;;;;;;5.83;5.33;;;;;;;;;;6222825;23;20410;-90
2023/09/05 06:39:47;;;;;;;7.80;5.20;;;;;;;;;;6221453;23;20426;-90
2023/09/05 06:42:17;;;;;;;5.00;4.50;;;18.30;1.00;;;;;;6221206;23;20477;-90
2023/09/05 06:44:44;;;;;;;6.77;6.07;;;18.40;99.90;;;;;;6240377;23;20430;-89
2023/09/05 06:47:11;;;;;;;5.63;5.23;;;;;;;;;;6242123;23;20434;-89
2023/09/05 06:49:38;;;;;;;5.00;4.60;;;;;;;;;;6230338;23;20752;-88
2023/09/05 06:52:06;;;;;;;5.90;4.80;;;18.60;99.90;;;;;;6241843;23;20401;-88
2023/09/05 06:54:35;;;;;;;5.17;4.77;;;;;;;;;;6244305;22;20466;-89
2023/09/05 06:57:02;;;;;;;5.00;4.50;;;18.90;99.90;;;;;;6244903;22;20391;-89
2023/09/05 06:59:45;;;;;;;4.40;3.83;;;;;;;;;;6245000;22;20414;-89
2023/09/05 07:02:39;;;;;;;6.13;5.20;;;18.90;1.00;;;;;;6244663;22;20425;-89
2023/09/05 07:05:37;;;;;;;;;;;;;;;;;;;;;
2023/09/05 07:08:20;;;;;;;6.87;4.73;;;;;;;;;;6234506;22;20406;-89
2023/09/05 07:11:18;;;;;;;4.90;4.30;;;;;;;;;;6223277;23;20506;-89
2023/09/05 07:16:51;;;;;;;5.30;4.70;;;19.20;14.30;;;;;;6209204;23;20406;-90
2023/09/05 07:19:32;;;;;;;4.90;4.50;;;;;;;;;;6222639;23;20523;-90
2023/09/05 07:22:07;;;;;;;4.87;4.23;;;;;;;;;;6223482;23;20493;-90
2023/09/05 07:24:34;;;;;;;5.50;5.00;;;;;;;;;;6223212;23;20433;-90
2023/09/05 07:27:19;;;;;;;4.50;4.07;;;19.40;99.90;;;;;;6232702;23;20413;-89
2023/09/05 07:30:00;;;;;;;7.53;5.07;;;;;;;;;;6227948;23;20450;-89
2023/09/05 07:32:30;;;;;;;5.93;4.47;;;20.00;99.90;;;;;;6225000;23;20414;-89
2023/09/05 07:37:49;;;;;;;5.90;3.50;;;;;;;;;;6221792;23;20421;-89
2023/09/05 07:40:17;;;;;;;5.03;4.47;;;;;;;;;;6219588;23;20430;-89
2023/09/05 07:43:00;;;;;;;3.93;3.47;;;20.00;25.40;;;;;;6220537;23;20410;-89
2023/09/05 07:45:30;;;;;;;3.83;3.53;;;19.90;99.90;;;;;;6220631;23;20426;-89
2023/09/05 07:48:07;;;;;;;4.33;3.97;;;;;;;;;;6222067;23;20406;-90
2023/09/05 07:54:27;;;;;;;5.37;4.90;;;20.30;1.00;;;;;;6216963;23;20410;-89
2023/09/05 08:06:02;;;;;;;5.80;4.10;;;;;;;;;;5928837;23;20479;-89
2023/09/05 08:08:54;;;;;;;12.20;10.43;;;20.50;99.90;;;;;;6014223;23;20739;-89
2023/09/05 08:11:42;;;;;;;23.27;18.80;;;;;;;;;;6019803;23;20421;-90
2023/09/05 08:17:30;;;;;;;6.23;5.37;;;;;;;;;;6218217;22;20402;-89
2023/09/05 08:20:16;;;;;;;6.10;4.40;;;;;;;;;;6239467;23;20424;-89
2023/09/05 08:26:10;;;;;;;7.87;6.63;;;;;;;;;;6242393;22;20425;-90
2023/09/05 08:29:07;;;;;;;8.90;6.17;;;;;;;;;;6240715;23;20390;-89
2023/09/05 08:32:01;;;;;;;3.43;3.13;;;21.10;1.00;;;;;;6237504;22;20430;-90
2023/09/05 08:35:44;;;;;;;;;;;;;;;;;;;;;
2023/09/05 08:38:37;;;;;;;4.97;4.50;;;;;;;;;;6237374;22;20489;-90
2023/09/05 08:41:38;;;;;;;5.43;4.93;;;21.40;99.90;;;;;;6238996;22;20403;-90
2023/09/05 08:44:26;;;;;;;;;;;;;;;;;;;;;
2023/09/05 08:47:11;;;;;;;4.03;3.33;;;21.50;73.30;;;;;;6220557;23;20409;-90
2023/09/05 08:50:08;;;;;;;3.23;3.00;;;;;;;;;;6227438;23;20437;-90
2023/09/05 08:55:46;;;;;;;3.30;2.90;;;;;;;;;;6239406;23;20387;-90
2023/09/05 08:58:42;;;;;;;5.07;4.57;;;21.80;41.50;;;;;;6233474;22;20405;-90
2023/09/05 09:01:29;;;;;;;4.43;3.13;;;21.90;1.00;;;;;;6239096;23;20424;-89
2023/09/05 09:04:31;;;;;;;4.27;3.83;;;22.00;1.00;;;;;;6240327;22;20422;-90
2023/09/05 09:07:19;;;;;;;2.87;2.63;;;;;;;;;;6223483;23;20402;-90
2023/09/05 09:16:38;;;;;;;4.63;2.90;;;22.30;1.00;;;;;;6217745;23;20410;-90
2023/09/05 09:19:29;;;;;;;3.20;3.00;;;22.40;1.00;;;;;;6219586;23;20438;-89
2023/09/05 09:22:11;;;;;;;3.37;3.07;;;;;;;;;;6220194;23;20864;-89
2023/09/05 09:27:44;;;;;;;3.70;3.40;;;22.60;1.00;;;;;;6220717;23;20418;-90
2023/09/05 09:30:12;;;;;;;8.93;3.63;;;;;;;;;;6219351;23;20920;-90
2023/09/05 09:35:41;;;;;;;3.57;3.27;;;;;;;;;;6223949;23;20390;-89
2023/09/05 09:38:23;;;;;;;3.07;2.87;;;22.80;1.00;;;;;;6238260;23;20407;-90
2023/09/05 09:41:39;;;;;;;2.93;2.40;;;22.90;1.00;;;;;;6220170;23;20427;-89
2023/09/05 09:44:15;;;;;;;3.00;2.80;;;;;;;;;;6217360;23;20955;-90
2023/09/05 09:47:11;;;;;;;2.53;2.33;;;;;;;;;;6220957;23;20448;-90
2023/09/05 09:50:08;;;;;;;3.80;3.50;;;23.10;1.00;;;;;;6221697;23;20421;-89
2023/09/05 09:52:58;;;;;;;4.47;4.07;;;23.20;1.00;;;;;;6117929;23;20480;-90
2023/09/05 09:59:27;;;;;;;4.93;3.03;;;23.30;1.00;;;;;;6192373;23;20397;-89
2023/09/05 10:02:15;;;;;;;2.37;2.17;;;;;;;;;;6199150;23;20414;-90
2023/09/05 10:04:53;;;;;;;2.40;2.27;;;;;;;;;;6223335;23;20853;-91
2023/09/05 10:07:25;;;;;;;3.73;2.40;;;;;;;;;;6237066;23;20458;-90
2023/09/05 10:09:53;;;;;;;3.80;2.40;;;;;;;;;;6243010;22;20433;-90
2023/09/05 10:12:50;;;;;;;5.67;3.20;;;23.50;1.00;;;;;;6243294;22;20403;-90
2023/09/05 10:15:28;;;;;;;2.90;2.60;;;23.50;1.00;;;;;;6242971;22;20403;-91
2023/09/05 10:18:12;;;;;;;6.30;3.40;;;23.50;1.00;;;;;;6242651;22;20434;-89
2023/09/05 10:20:49;;;;;;;3.53;2.90;;;23.60;1.00;;;;;;6241150;23;20437;-90
2023/09/05 10:23:19;;;;;;;4.30;3.23;;;23.60;1.00;;;;;;6234762;23;20371;-89
2023/09/05 10:25:51;;;;;;;3.77;2.37;;;;;;;;;;6224144;23;20442;-89
2023/09/05 10:28:20;;;;;;;2.63;2.43;;;23.70;1.00;;;;;;6224748;23;20699;-89
2023/09/05 11:02:27;;;;;;;2.80;2.60;;;24.20;1.00;;;;;;6234715;22;20449;-92
2023/09/05 11:05:46;;;;;;;3.00;2.80;;;24.20;1.00;;;;;;6260921;23;20410;-92
2023/09/05 11:12:01;;;;;;;2.60;2.40;;;24.30;1.00;;;;;;6253184;22;20499;-91
2023/09/05 11:18:43;;;;;;;6.10;4.47;;;;;;;;;;6119273;23;20409;-92
2023/09/05 11:24:28;;;;;;;2.30;2.10;;;;;;;;;;6180603;22;20452;-90
2023/09/05 11:26:55;;;;;;;2.63;2.43;;;;;;;;;;6253049;23;20495;-91
2023/09/05 11:29:28;;;;;;;2.20;1.73;;;;;;;;;;6253550;23;20437;-91
2023/09/05 11:32:05;;;;;;;2.60;2.40;;;24.60;1.00;;;;;;6255547;23;20466;-91
2023/09/05 11:34:34;;;;;;;7.67;6.87;;;;;;;;;;6254481;22;20464;-91
2023/09/05 11:39:49;;;;;;;5.87;5.27;;;;;;;;;;6257766;23;20484;-91
2023/09/05 11:42:30;;;;;;;4.93;4.43;;;24.80;1.00;;;;;;6257809;23;20377;-92
2023/09/05 11:45:01;;;;;;;9.87;8.87;;;;;;;;;;6262124;22;20415;-91
2023/09/05 11:47:28;;;;;;;6.90;3.70;;;;;;;;;;6257963;23;20740;-91
2023/09/05 11:49:56;;;;;;;6.90;6.07;;;;;;;;;;6267089;23;20394;-91
2023/09/05 11:52:27;;;;;;;5.10;2.93;;;;;;;;;;6270644;22;20400;-90
2023/09/05 11:54:58;;;;;;;2.93;2.43;;;24.90;1.00;;;;;;6272925;22;20444;-89
2023/09/05 11:57:26;;;;;;;3.93;3.63;;;;;;;;;;6272036;22;20401;-91
2023/09/05 11:59:57;;;;;;;4.30;2.23;;;;;;;;;;6261042;23;20445;-91
2023/09/05 12:02:24;;;;;;;2.20;2.00;;;;;;;;;;6253738;23;20410;-92
2023/09/05 12:05:04;;;;;;;2.33;2.13;;;25.00;1.00;;;;;;6256872;22;20429;-90
2023/09/05 12:07:34;;;;;;;3.23;2.27;;;25.10;1.00;;;;;;6261610;22;20441;-92
2023/09/05 12:10:06;;;;;;;2.80;2.60;;;;;;;;;;6260051;23;20409;-91
2023/09/05 12:12:35;;;;;;;2.83;2.60;;;;;;;;;;6260164;23;20440;-91
2023/09/05 12:15:05;;;;;;;2.27;2.07;;;25.20;1.00;;;;;;6257415;22;20460;-91
2023/09/05 12:17:35;;;;;;;3.17;2.97;;;;;;;;;;6257446;23;20404;-91
2023/09/05 12:20:09;;;;;;;3.53;2.50;;;25.20;1.00;;;;;;6256343;23;20436;-90
2023/09/05 12:22:37;;;;;;;3.20;2.47;;;;;;;;;;6254312;23;20409;-91
2023/09/05 12:25:17;;;;;;;2.60;2.20;;;25.20;1.00;;;;;;6254339;22;20433;-91
2023/09/05 12:27:49;;;;;;;2.03;1.93;;;25.30;1.00;;;;;;6260009;22;20386;-90
2023/09/05 12:30:28;;;;;;;3.13;2.83;;;25.30;1.00;;;;;;6261847;22;20849;-92
2023/09/05 12:33:00;;;;;;;2.70;2.00;;;25.30;1.00;;;;;;6253100;23;20397;-92
2023/09/05 12:35:29;;;;;;;3.40;2.50;;;25.40;1.00;;;;;;6257741;22;20410;-92
2023/09/05 12:37:57;;;;;;;3.37;3.10;;;;;;;;;;6268951;22;20428;-91
2023/09/05 12:40:27;;;;;;;3.23;3.00;;;;;;;;;;6273938;22;20461;-89
2023/09/05 12:43:00;;;;;;;4.60;3.40;;;;;;;;;;6273865;22;20420;-91
2023/09/05 12:45:31;;;;;;;2.93;2.70;;;;;;;;;;6274302;22;20402;-89
2023/09/05 12:47:58;;;;;;;6.80;2.90;;;;;;;;;;6272192;22;20398;-91
2023/09/05 12:50:32;;;;;;;2.87;2.60;;;25.60;1.00;;;;;;6267172;23;20421;-91
2023/09/05 12:53:09;;;;;;;5.77;2.97;;;25.60;1.00;;;;;;6265582;23;20444;-91
2023/09/05 12:55:45;;;;;;;4.60;3.53;;;;;;;;;;6258571;23;20385;-90
2023/09/05 12:58:21;;;;;;;8.10;5.37;;;;;;;;;;6257974;23;20397;-91
2023/09/05 13:00:52;;;;;;;10.00;6.43;;;25.70;1.00;;;;;;6257275;23;20464;-92
2023/09/05 13:03:27;;;;;;;6.30;4.03;;;;;;;;;;6255790;22;20456;-91
2023/09/05 13:05:58;;;;;;;2.80;2.20;;;;;;;;;;6257169;23;20445;-91
2023/09/05 13:08:28;;;;;;;2.23;2.13;;;;;;;;;;6259825;23;20409;-92
2023/09/05 13:11:00;;;;;;;2.33;2.07;;;;;;;;;;6257234;23;20401;-91
2023/09/05 13:13:28;;;;;;;6.27;2.50;;;;;;;;;;6261680;22;20434;-92
2023/09/05 13:15:58;;;;;;;4.70;2.13;;;;;;;;;;6270939;22;20461;-91
2023/09/05 13:18:27;;;;;;;3.30;2.67;;;;;;;;;;6273436;22;20402;-90
2023/09/05 13:20:55;;;;;;;2.50;2.30;;;;;;;;;;6271764;22;20428;-91
2023/09/05 13:23:24;;;;;;;3.00;2.67;;;;;;;;;;6267404;22;20431;-90
2023/09/05 13:25:54;;;;;;;2.53;2.33;;;;;;;;;;6273560;22;20402;-91
2023/09/05 13:28:23;;;;;;;4.43;2.60;;;;;;;;;;6272976;22;20405;-90
2023/09/05 13:30:50;;;;;;;3.27;3.03;;;;;;;;;;6273481;22;20397;-90
2023/09/05 13:36:07;;;;;;;3.27;2.27;;;;;;;;;;6257757;22;20414;-90
2023/09/05 13:38:35;;;;;;;3.50;2.20;;;;;;;;;;6274035;22;20386;-87
2023/09/05 13:41:02;;;;;;;5.57;4.10;;;25.10;99.90;;;;;;6274204;22;20398;-88
2023/09/05 13:43:36;;;;;;;5.53;2.90;;;;;;;;;;6273677;22;20405;-88
2023/09/05 13:46:03;;;;;;;2.60;2.40;;;;;;;;;;6273974;22;20429;-89
2023/09/05 13:48:30;;;;;;;4.27;2.30;;;;;;;;;;6273785;22;20394;-91
2023/09/05 13:50:58;;;;;;;2.47;2.27;;;;;;;;;;6262042;23;20397;-91
2023/09/05 13:53:25;;;;;;;3.17;2.80;;;;;;;;;;6261163;22;20414;-92
2023/09/05 13:55:52;;;;;;;3.23;1.97;;;;;;;;;;6257786;23;20412;-91
2023/09/05 13:58:19;;;;;;;2.17;1.97;;;;;;;;;;6255536;23;20703;-92
2023/09/05 14:01:41;;;;;;;5.37;3.90;;;25.90;1.00;;;;;;6258365;23;20417;-91
2023/09/05 14:04:10;;;;;;;3.70;2.90;;;;;;;;;;6196476;22;20429;-90
2023/09/05 14:06:39;;;;;;;5.33;3.37;;;;;;;;;;6256701;23;20444;-91
2023/09/05 14:09:07;;;;;;;2.73;2.23;;;;;;;;;;6256242;23;20484;-91
2023/09/05 14:11:34;;;;;;;2.10;1.97;;;;;;;;;;6256823;23;20374;-91
2023/09/05 14:14:04;;;;;;;5.13;2.90;;;;;;;;;;6255642;22;20431;-91
2023/09/05 14:16:31;;;;;;;2.63;2.43;;;;;;;;;;6255705;23;20401;-91
2023/09/05 14:18:58;;;;;;;3.53;2.97;;;;;;;;;;6256467;23;20405;-91
2023/09/05 14:21:29;;;;;;;3.43;2.53;;;;;;;;;;6255282;23;20409;-92
2023/09/05 14:23:57;;;;;;;7.57;2.13;;;;;;;;;;6255025;22;20436;-92
2023/09/05 14:26:27;;;;;;;2.73;2.53;;;;;;;;;;6271078;23;20433;-90
2023/09/05 14:28:55;;;;;;;2.20;2.00;;;;;;;;;;6273671;22;20409;-91
2023/09/05 14:31:25;;;;;;;2.80;2.60;;;25.80;1.00;;;;;;6273877;23;20405;-90
2023/09/05 14:33:55;;;;;;;2.70;2.20;;;;;;;;;;6273420;22;20417;-91
2023/09/05 14:36:27;;;;;;;2.53;2.33;;;;;;;;;;6268664;23;20438;-91
2023/09/05 14:38:59;;;;;;;3.13;2.93;;;;;;;;;;6266135;23;20421;-90
2023/09/05 14:41:33;;;;;;;3.10;2.00;;;;;;;;;;6270452;23;20424;-91
2023/09/05 14:44:10;;;;;;;6.73;3.10;;;;;;;;;;6275104;22;20420;-90
2023/09/05 14:46:41;;;;;;;1.93;1.80;;;;;;;;;;6274585;22;20444;-90
2023/09/05 14:49:20;;;;;;;2.83;2.00;;;;;;;;;;6268086;23;20416;-90
2023/09/05 14:51:54;;;;;;;3.50;3.03;;;25.80;99.90;;;;;;6270421;22;20382;-91
2023/09/05 14:54:35;;;;;;;2.73;2.40;;;;;;;;;;6262079;22;20447;-91
2023/09/05 14:57:02;;;;;;;3.10;2.00;;;;;;;;;;6266446;22;20555;-91
2023/09/05 14:59:36;;;;;;;4.20;2.70;;;;;;;;;;6263601;22;20402;-92
2023/09/05 15:02:05;;;;;;;3.17;2.80;;;;;;;;;;6260322;23;20472;-92
2023/09/05 15:04:36;;;;;;;4.13;2.60;;;;;;;;;;6258864;22;20448;-91
2023/09/05 15:07:13;;;;;;;2.50;2.30;;;;;;;;;;6258218;23;20467;-91
2023/09/05 15:09:42;;;;;;;2.73;2.17;;;;;;;;;;6258482;23;20428;-91
2023/09/05 15:12:14;;;;;;;3.90;2.53;;;;;;;;;;6259234;23;20406;-91
2023/09/05 15:14:46;;;;;;;5.23;3.50;;;25.70;1.00;;;;;;6270409;22;20437;-90
2023/09/05 15:17:14;;;;;;;8.03;3.37;;;;;;;;;;6275108;22;20401;-90
2023/09/05 15:19:43;;;;;;;4.17;3.73;;;;;;;;;;6275133;22;20392;-90
2023/09/05 15:22:15;;;;;;;9.47;2.30;;;25.60;99.90;;;;;;6273850;22;20401;-90
2023/09/05 15:24:47;;;;;;;2.60;2.40;;;;;;;;;;6274267;22;20413;-92
2023/09/05 15:27:14;;;;;;;3.13;2.83;;;;;;;;;;6273515;22;20516;-91
2023/09/05 15:29:44;;;;;;;4.80;2.97;;;;;;;;;;6265638;23;20480;-91
2023/09/05 15:32:17;;;;;;;2.90;2.60;;;;;;;;;;6264875;23;20409;-92
2023/09/05 15:34:51;;;;;;;3.80;3.50;;;25.70;1.00;;;;;;6268262;22;20428;-91
2023/09/05 15:37:21;;;;;;;6.80;4.77;;;25.60;1.00;;;;;;6266084;23;20397;-91
2023/09/05 15:39:53;;;;;;;4.20;3.90;;;;;;;;;;6265261;23;20455;-91
2023/09/05 15:42:32;;;;;;;3.27;2.97;;;;;;;;;;6264952;23;20402;-91
2023/09/05 15:45:12;;;;;;;4.10;3.23;;;;;;;;;;6264315;22;20436;-91
2023/09/05 15:47:48;;;;;;;3.37;2.63;;;;;;;;;;6267127;23;20421;-90
2023/09/05 15:50:23;;;;;;;2.80;2.30;;;25.50;1.00;;;;;;6266381;23;20382;-91
2023/09/05 15:52:55;;;;;;;2.87;2.60;;;;;;;;;;6266674;23;20413;-90
2023/09/05 15:55:31;;;;;;;4.10;2.30;;;25.60;1.00;;;;;;6270094;22;20409;-91
2023/09/05 15:58:05;;;;;;;3.67;2.50;;;;;;;;;;6263519;23;20382;-91
2023/09/05 16:00:34;;;;;;;3.70;3.27;;;;;;;;;;6265464;23;20378;-92
2023/09/05 16:03:17;;;;;;;4.10;3.67;;;;;;;;;;6267453;23;20417;-91
2023/09/05 16:05:51;;;;;;;3.10;2.80;;;;;;;;;;6265848;23;20716;-90
2023/09/05 16:08:32;;;;;;;2.77;2.57;;;;;;;;;;6264843;23;20448;-91
2023/09/05 16:11:24;;;;;;;2.50;2.30;;;;;;;;;;6261876;23;20400;-91
2023/09/05 16:14:08;;;;;;;2.87;2.47;;;;;;;;;;6265642;22;20803;-92
2023/09/05 16:16:47;;;;;;;3.53;2.50;;;;;;;;;;6264990;23;20410;-91
2023/09/05 16:22:21;;;;;;;2.87;2.53;;;25.30;1.00;;;;;;6264509;23;20382;-91
2023/09/05 16:24:50;;;;;;;3.30;2.97;;;;;;;;;;6263167;22;20430;-91
2023/09/05 16:27:28;;;;;;;3.20;2.90;;;;;;;;;;6264620;23;20448;-91
2023/09/05 16:30:07;;;;;;;3.40;2.83;;;;;;;;;;6259654;23;20440;-91
2023/09/05 16:33:08;;;;;;;5.50;2.80;;;;;;;;;;6265070;22;20448;-92
2023/09/05 16:35:51;;;;;;;;;;;;;;;;;;;;;
2023/09/05 16:38:38;;;;;;;3.00;2.80;;;;;;;;;;6271022;23;20469;-92
2023/09/05 16:44:28;;;;;;;4.17;3.07;;;24.70;1.00;;;;;;6272440;22;20416;-89
2023/09/05 16:52:28;;;;;;;3.50;3.20;;;;;;;;;;6269234;22;20471;-92
2023/09/05 16:55:12;;;;;;;3.67;2.70;;;;;;;;;;6247166;22;20531;-91
2023/09/05 17:00:40;;;;;;;5.20;3.20;;;;;;;;;;6264872;23;20428;-91
2023/09/05 17:03:28;;;;;;;3.43;2.70;;;;;;;;;;6268891;22;20394;-90
2023/09/05 17:06:51;;;;;;;4.37;3.27;;;24.10;1.00;;;;;;6254871;22;20480;-90
2023/09/05 17:16:29;;;;;;;7.47;5.77;;;24.00;1.00;;;;;;5979961;23;20483;-91
2023/09/05 18:53:29;;;;;;;5.23;4.73;;;22.30;1.00;;;;;;6166676;23;20446;-91
2023/09/05 19:00:21;;;;;;;6.53;5.93;;;22.20;1.00;;;;;;6232075;23;20427;-90
2023/09/05 19:09:22;;;;;;;5.50;5.00;;;;;;;;;;6261506;23;20463;-90
2023/09/05 20:05:28;;;;;;;9.60;8.27;;;;;;;;;;6255345;22;20455;-90
2023/09/05 20:14:48;;;;;;;21.50;13.80;;;;;;;;;;6264615;22;20440;-92
2023/09/05 20:23:25;;;;;;;;;;;;;;;;;;;;;
2023/09/05 20:26:38;;;;;;;11.87;9.23;;;20.70;1.00;;;;;;6168469;23;20414;-89
2023/09/05 22:16:14;;;;;;;9.30;7.93;;;19.10;99.90;;;;;;6249115;22;20448;-91
2023/09/05 22:29:14;;;;;;;10.60;9.23;;;;;;;;;;6187520;23;20478;-92
2023/09/05 22:32:28;;;;;;;;;;;;;;;;;;;;;
2023/09/05 22:35:48;;;;;;;31.93;19.23;;;18.90;99.90;;;;;;6228757;22;20409;-92
2023/09/05 22:45:15;;;;;;;11.83;9.97;;;18.90;99.90;;;;;;6277466;22;20564;-91
2023/09/05 23:01:38;;;;;;;11.00;8.20;;;18.70;99.90;;;;;;6178892;22;20413;-92
2023/09/05 23:16:49;;;;;;;8.37;7.57;;;18.60;1.00;;;;;;6208762;23;20911;-93
2023/09/05 23:19:31;;;;;;;9.07;7.97;;;;;;;;;;6237623;23;20420;-93
2023/09/05 23:22:00;;;;;;;10.87;9.10;;;;;;;;;;6255591;23;20445;-93
2023/09/05 23:24:28;;;;;;;8.10;7.07;;;;;;;;;;6257576;23;20413;-94
2023/09/05 23:26:56;;;;;;;8.10;7.30;;;;;;;;;;6271596;23;20394;-94
